Relevés horaires Koksijde (Belgique)


Relevés horaires à Koksijde - Vendredi 26 Févr. 2016
Heure UTC1 Température [°C] Vent [km/h] Hum. [%] Pres.4 [hPa] Visi. [Km] Nébu. [octa] Préc.5 [mm] Cond.
2m. Res. Ros. Dir.2 Vit. Moy. Raf.3
23:00 2.2 2.2 0.1 E 3.7 3.7 5.6 86 1008.6(-0.4/3h) 9 7/8 -- --
22:00 2.7 2.7 0.6 E 3.7 5.6 7.4 86 1008.8(-0.3/3h) 9 7/8 -- --
21:00 4.5 4.5 0.5 E 3.7 5.6 7.4 75 1009.2(-0.5/3h) 15 7/8 0/0h
--
20:00 3.2 3.2 0.7 E 3.7 5.6 5.6 84 1009.1(0.1/3h) 12 7/8 -- --
19:00 3.7 3.7 0.7 E 3.7 3.7 5.6 81 1009.2(-0.1/3h) 15 7/8 -- --
18:00 4.5 4.5 0.5 E 3.7 9.3 11.1 75 1009.2(-0.5/3h) 15 7/8 0/0h
--
17:00 5.6 4.5 -2.2 SSE 5.6 7.4 7.4 57 1009.1(-1.1/3h) 15 7/8 -- --
16:00 6.1 4.6 -1.8 SE 7.4 7.4 11.1 57 1009.2(-1.8/3h) 15 6/8 -- --
15:00 6.6 5.7 -1.7 SSO 5.6 9.3 11.1 55 1009.7(-2.0/3h) 12 6/8 -- --
14:00 5.6 4.5 0.3 ESE 5.6 7.4 11.1 69 1010.2(-2.2/3h) 12 7/8 -- --
13:00 5.4 3.8 0.6 SE 7.4 9.3 11.1 71 1011.1(-1.7/3h) 15 7/8 -- --
12:00 5.3 3.6 -0.6 ESE 7.4 -- 13.0 66 1011.7(-1.5/3h) 15 7/8 0/0h
--
11:00 4.6 3.4 -0.4 SE 5.6 7.4 9.3 70 1012.6(-0.9/3h) 12 7/8 -- --
10:00 4.4 4.4 -1.1 SE 3.7 5.6 5.6 67 1012.8(-0.5/3h) 12 7/8 -- --
09:00 3.4 3.4 0.6 ESE 3.7 3.7 5.6 82 1013.2(-0.3/3h) 8 7/8 -- --
08:00 2.5 2.5 0.3 NNO 1.9 1.9 1.9 85 1013.6(-0.4/3h) 7 7/8 -- --
07:00 2.0 2.0 -1.0 NNO 1.9 1.9 1.9 80 1013.5(-0.8/3h) 7 7/8 -- --
06:00 2.0 2.0 -0.7 NNO 1.9 3.7 5.6 82 1013.6(-1.1/3h) 12 7/8 0/0h
--
05:00 1.7 1.7 -0.7 SSO 3.7 3.7 5.6 84 1014(-1.3/3h) 11 7/8 -- --
04:00 2.0 2.0 -0.3 SO 3.7 3.7 5.6 85 1014.3(-1.6/3h) 9 7/8 -- --
03:00 2.0 2.0 0.1 SO 3.7 -- 5.6 87 1014.7(-1.4/3h) 9 7/8 -- --
02:00 -2.2 -2.2 -- SSO 3.7 3.7 5.6 -- 1015.2(-1.1/3h) 18 7/8 -- --
01:00 2.5 2.5 -0.1 SSO 3.7 3.7 5.6 83 1016(-0.7/3h) 17 7/8 -- --
00:00 2.6 2.6 -0.3 SO 3.7 -- 5.6 81 1016(-0.7/3h) 17 7/8 0/0h
--

1 Coordinated Universal Time. Actuellement il est 16:00 locale et 14:00 UTC.

2 Le vent souffle depuis la direction indiquée vers la direction oposée.

3 Les rafales max. sont disponible 40 min après l'heure du relevé.

4 Pour les stations d'altitude (plus de 600m) le géopotentiel du niveau le plus proche de la pression obligatoire est indiqué.

5 Les stations disposant d'un diffuseur peuvent indiquer "trace". Cela signifie que des précipitations ont touchés le sol mais que la quantité est inférieure à 0.1 mm.

Récapitulatif de la journée
Température [°C] Vent [km/h] Ensoleillement4 [h] Precipitations totale5 [mm] Pression [Hpa]
Min1 Max.2 Moy.3 Max. Min Max.
1.7 7.1 5.4 13.0 0 h 0 min 0 1008.6 1016.0

1 Température minimale relevée entre 18:00 UTC la veille et 18:00 UTC le jour donné.

2 Température maximale relevée entre 06:00 UTC le jour donné et 06:00 UTC le lendemain.

3 Vent moyen de la journée basé sur les relevés horaires.

4 Ensoleillement en heures relevé entre 06:00 UTC la veille et 06:00 UTC le jour donné.

5 Précipitations totales tombées entre 06:00 UTC la jour donné et 06:00 UTC le lendemain.

Graphiques horaires